In Rescue
 
Open Full Screen Window  High Contrast Mode
Wind Gusting 24 knots
14
March 01, 2024 3:56 PM CST
Weather Information
Wind Direction
  160 °
Wind Speed
  14 kt (16 mph)
Wind Gust
  24 kt (28 mph)
Altimeter
29.85 in
Visibility
10 SM
Temperature
12° C
54° F
Dewpoint
-01° C
30° F
Humidity
41%
Sky Condition
Clear
VFR

METAR K9MN 012156Z AUTO 16014G24KT 10SM CLR 12/M01 A2985 RMK AO1 T01201007

FAA Disclaimer: The data displayed is for advisory purposes only and is not to be used for flight planning or operations.